Česky Dansk Deutsch English Español Suomi Français Magyar Italiano Nederlands norsk Polski Português svenska Türkçe

 

Het Weer

Nordholz (Duitsland)

01:20, 19 augustus 2016 (GMT)

NWNNE
WE
SWSSE
Home            
Nordholz Jever Itzehoe Lemwerder Wittmundhaven Bremen Hamburg-Finkenwerder Hohn Hamburg-Fuhlsbuettel Schleswig-Jagel Eggebek Kiel-Holtenau Kiel / Holtenau Civilian Westerland / Sylt Gluecksburg / Meierwik Diepholz Luebeck-Blankensee Bergen Fassberg Meppen-Mil Soenderborg Lufthavn Groningen Airport Eelde Wunstorf

Om een weerknop op uw website of weblog te plaatsen, copieer onderstaande code en plak die in uw pagina. In het eerste vakje staat HTML-code, in het tweede vakje UBB-code.


Add to Google

Details

Wind speed:1 bf, 1 kn, 0.5 m/s, 1.2 miles/h, 1.9 km/h
Wind direction:E, 100°
Visibility:Greater than 10000 m, 10 km, 32800 ft, 6.2 miles
Het Weer:moderate shallow fog
Temperature:11°C, 52°F
Dew-point:10°C, 50°F
Atmospheric pressure:1011 hPa, 758.3 mmHg, 29.85 inHg, 0.998 atm
Relative humidity:93.5 %
METAR:ETMN 190120Z 10001KT 9999 MIFG 11/10 Q1011 BLU+

Snelkoppelingen

Actuele weersinformatie van de hele wereld. Voeg locaties toe met het plus (+) symbool. Deze snelkoppelingen kunnen worden toegevoegd aan Google.

Lid van de Technetium groep

website free tracking
StatCounter NetStat W3C Validator

16-08-2022 04:01:23
astro.technetium.be money.technetium.be phote.technetium.be tafeltennistafel.technetium.be www.ligfiets.net